Laurel — ZCOV6 — position and weather

sailwx.info

Track history (hours):
 
Tides and Currents Weather Stations Pressure Air Temp Water Temp Dewpoint Dewpoint Depression Visibility Wind Speed Wind Dir Waves Ship Positions

Laurel

Last reported at 2014-Sep-16 03:30 UTC. Time now 2014-Sep-24 04:30 UTC.
Position N 39°34' E 002°38'.
Warning: this ship's position is 8 days out of date.

Length 73 m; draft 3.7 m.

Type: Pleasure craft. MMSI: 319914000.

Date/timePositionNaut miles runAvg speedWind from/ knotsBaromVisibWave heightAir tempDewpointWater temp
2014-Sep-16 03:30N 39°34' E 002°38'0 0.0
2014-Sep-16 02:33N 39°34' E 002°38'0 0.0
2014-Sep-16 01:27N 39°34' E 002°38'0 0.0
2014-Sep-15 21:23N 39°34' E 002°38'  
2014-Sep-11 14:33N 39°28' E 002°28'1312.6
2014-Sep-11 13:33N 39°21' E 002°42'1312.7
2014-Sep-11 12:33N 39°16' E 002°57'1312.7
2014-Sep-11 11:33N 39°12' E 003°12'1313.0
2014-Sep-11 10:33N 39°09' E 003°29'32012.8
2014-Sep-10 09:33N 38°00' E 010°08'17611.5
2014-Sep-09 18:10N 37°03' E 013°38'1011.6
2014-Sep-09 17:19N 36°58' E 013°49'1211.1
2014-Sep-09 16:13N 36°53' E 014°03'710.8
2014-Sep-09 15:33N 36°50' E 014°11'1111.5
2014-Sep-09 14:33N 36°45' E 014°24'47610.8
2014-Sep-07 18:26N 36°54' E 024°19'1612.3
2014-Sep-07 17:06N 37°04' E 024°35'712.2
2014-Sep-07 16:33N 37°07' E 024°42'1212.0
2014-Sep-07 15:33N 37°12' E 024°56'1211.8
2014-Sep-07 14:33N 37°18' E 025°09'1110.8
2014-Sep-07 13:33N 37°25' E 025°19'0 0.0
2014-Sep-07 12:33N 37°25' E 025°19'0 0.0
2014-Sep-07 11:33N 37°25' E 025°19'0 0.1
2014-Sep-07 10:30N 37°25' E 025°19'0 0.0
2014-Sep-07 09:24N 37°25' E 025°19'0 0.0
2014-Sep-07 08:30N 37°25' E 025°19'2 1.9
2014-Sep-07 07:33N 37°23' E 025°20'1211.7
2014-Sep-07 06:34N 37°11' E 025°21'6 5.5
2014-Sep-07 05:33N 37°06' E 025°22'0 0.0
2014-Sep-07 04:33N 37°06' E 025°22'0 0.0
2014-Sep-07 03:33N 37°06' E 025°22'0 0.0
2014-Sep-07 02:27N 37°06' E 025°22'0 0.0
2014-Sep-07 01:33N 37°06' E 025°22'0 0.0
2014-Sep-07 00:33N 37°06' E 025°22'0 0.0
2014-Sep-06 23:27N 37°06' E 025°22'0 0.0
2014-Sep-06 22:33N 37°06' E 025°22'0 0.0
2014-Sep-06 21:33N 37°06' E 025°22'0 0.0
2014-Sep-06 20:33N 37°06' E 025°22'0 0.0
2014-Sep-06 19:27N 37°06' E 025°22'0 0.0
2014-Sep-06 18:33N 37°06' E 025°22'0 0.0
2014-Sep-06 17:27N 37°06' E 025°22'0 0.0
2014-Sep-06 16:33N 37°06' E 025°22'3 2.7
2014-Sep-06 15:32N 37°03' E 025°21'0 0.0
2014-Sep-06 14:32N 37°03' E 025°21'1 1.5
2014-Sep-06 13:31N 37°02' E 025°22'0 0.0
2014-Sep-06 12:31N 37°02' E 025°22'0 0.0
2014-Sep-06 11:31N 37°02' E 025°22'0 0.0
2014-Sep-06 10:31N 37°02' E 025°22'0 0.0
2014-Sep-06 09:31N 37°02' E 025°22'0 0.0
2014-Sep-06 08:31N 37°02' E 025°22'0 0.0
2014-Sep-06 07:34N 37°02' E 025°22'8 7.7
2014-Sep-06 06:33N 37°09' E 025°18'2 1.9
2014-Sep-06 05:27N 37°08' E 025°16'0 0.0
2014-Sep-06 04:33N 37°08' E 025°16'0 0.0
2014-Sep-06 03:33N 37°08' E 025°16'  
Track history (hours):
 
Tides and Currents Weather Stations Pressure Air Temp Water Temp Dewpoint Dewpoint Depression Visibility Wind Speed Wind Dir Waves Ship Positions

Laurel

Last reported at 2014-Sep-16 03:30 UTC. Time now 2014-Sep-24 04:30 UTC.
Position N 39°34' E 002°38'.
Warning: this ship's position is 8 days out of date.

Length 73 m; draft 3.7 m.

Type: Pleasure craft. MMSI: 319914000.

Date/timePositionNaut miles runAvg speedWind from/ knotsBaromVisibWave heightAir tempDewpointWater temp
2014-Sep-16 03:30N 39°34' E 002°38'0 0.0
2014-Sep-16 02:33N 39°34' E 002°38'0 0.0
2014-Sep-16 01:27N 39°34' E 002°38'0 0.0
2014-Sep-15 21:23N 39°34' E 002°38'  
2014-Sep-11 14:33N 39°28' E 002°28'1312.6
2014-Sep-11 13:33N 39°21' E 002°42'1312.7
2014-Sep-11 12:33N 39°16' E 002°57'1312.7
2014-Sep-11 11:33N 39°12' E 003°12'1313.0
2014-Sep-11 10:33N 39°09' E 003°29'32012.8
2014-Sep-10 09:33N 38°00' E 010°08'17611.5
2014-Sep-09 18:10N 37°03' E 013°38'1011.6
2014-Sep-09 17:19N 36°58' E 013°49'1211.1
2014-Sep-09 16:13N 36°53' E 014°03'710.8
2014-Sep-09 15:33N 36°50' E 014°11'1111.5
2014-Sep-09 14:33N 36°45' E 014°24'47610.8
2014-Sep-07 18:26N 36°54' E 024°19'1612.3
2014-Sep-07 17:06N 37°04' E 024°35'712.2
2014-Sep-07 16:33N 37°07' E 024°42'1212.0
2014-Sep-07 15:33N 37°12' E 024°56'1211.8
2014-Sep-07 14:33N 37°18' E 025°09'1110.8
2014-Sep-07 13:33N 37°25' E 025°19'0 0.0
2014-Sep-07 12:33N 37°25' E 025°19'0 0.0
2014-Sep-07 11:33N 37°25' E 025°19'0 0.1
2014-Sep-07 10:30N 37°25' E 025°19'0 0.0
2014-Sep-07 09:24N 37°25' E 025°19'0 0.0
2014-Sep-07 08:30N 37°25' E 025°19'2 1.9
2014-Sep-07 07:33N 37°23' E 025°20'1211.7
2014-Sep-07 06:34N 37°11' E 025°21'6 5.5
2014-Sep-07 05:33N 37°06' E 025°22'0 0.0
2014-Sep-07 04:33N 37°06' E 025°22'0 0.0
2014-Sep-07 03:33N 37°06' E 025°22'0 0.0
2014-Sep-07 02:27N 37°06' E 025°22'0 0.0
2014-Sep-07 01:33N 37°06' E 025°22'0 0.0
2014-Sep-07 00:33N 37°06' E 025°22'0 0.0
2014-Sep-06 23:27N 37°06' E 025°22'0 0.0
2014-Sep-06 22:33N 37°06' E 025°22'0 0.0
2014-Sep-06 21:33N 37°06' E 025°22'0 0.0
2014-Sep-06 20:33N 37°06' E 025°22'0 0.0
2014-Sep-06 19:27N 37°06' E 025°22'0 0.0
2014-Sep-06 18:33N 37°06' E 025°22'0 0.0
2014-Sep-06 17:27N 37°06' E 025°22'0 0.0
2014-Sep-06 16:33N 37°06' E 025°22'3 2.7
2014-Sep-06 15:32N 37°03' E 025°21'0 0.0
2014-Sep-06 14:32N 37°03' E 025°21'1 1.5
2014-Sep-06 13:31N 37°02' E 025°22'0 0.0
2014-Sep-06 12:31N 37°02' E 025°22'0 0.0
2014-Sep-06 11:31N 37°02' E 025°22'0 0.0
2014-Sep-06 10:31N 37°02' E 025°22'0 0.0
2014-Sep-06 09:31N 37°02' E 025°22'0 0.0
2014-Sep-06 08:31N 37°02' E 025°22'0 0.0
2014-Sep-06 07:34N 37°02' E 025°22'8 7.7
2014-Sep-06 06:33N 37°09' E 025°18'2 1.9
2014-Sep-06 05:27N 37°08' E 025°16'0 0.0
2014-Sep-06 04:33N 37°08' E 025°16'0 0.0
2014-Sep-06 03:33N 37°08' E 025°16'  

Dump ship's entire track history